Latest Weather Observations for PORTABLE RFSNSW09

IDN60801

Issued at 3:32 pm EST Thursday 28 May 2020 (issued every 10 minutes, with the page automatically refreshed every 10 minutes)

About weather observations | Map of weather stations | Latest weather observations for NSW | Other Formats
Station Details ID: 250063 Name: PORTABLE RFSNSW09 Lat: -31.81 Lon: 151.59 Height: 953.0 m

Portable automatic weather stations (PAWS) are operated by other organisations, such as Fire and Emergency Services, and are included here by agreement. Portable stations may be deployed to a location for a short period and their location may be subject to change without notice. Wind observations from these stations are provided from heights of either three (3) or ten (10) metres above ground level (AGL).

Data from the previous 72 hours. | See also: Recent months for locations in New South Wales
Date/Time
EST
Temp
°C
App
Temp
°C
Dew
Point
°C
Rel
Hum
%
Delta-T
°C
Wind Press
QNH
hPa
Press
MSL
hPa
Rain since
9am
mm
Dir  Spd
km/h
Gust
km/h
Spd
kts
Gust
kts
28/03:20pm 16.6 14.5 8.3 58 4.4 W 9 11 5 6 - - 0.0
28/03:10pm 16.3 14.4 7.5 56 4.6 W 7 11 4 6 - - 0.0
28/03:00pm 15.8 13.6 7.9 59 4.2 W 9 11 5 6 - - 0.0
28/02:50pm 16.5 13.9 7.6 55 4.7 W 11 17 6 9 - - 0.0
28/02:40pm 15.9 13.3 7.6 58 4.4 WNW 11 15 6 8 - - 0.0
28/02:30pm 16.5 13.8 7.5 55 4.7 WNW 11 15 6 8 - - 0.0
28/02:20pm 17.1 15.2 7.6 53 5.0 W 7 13 4 7 - - 0.0
28/02:10pm 16.7 14.5 7.8 55 4.7 W 9 13 5 7 - - 0.0
28/02:00pm 17.0 15.0 7.3 53 5.1 W 7 11 4 6 - - 0.0
28/01:50pm 16.5 13.8 7.4 55 4.8 W 11 15 6 8 - - 0.0
28/01:40pm 16.8 14.2 7.9 55 4.7 W 11 15 6 8 - - 0.0
28/01:30pm 16.7 14.3 6.9 52 5.1 W 9 15 5 8 - - 0.0
28/01:20pm 16.7 14.4 7.4 54 4.9 W 9 13 5 7 - - 0.0
28/01:10pm 16.8 14.6 8.0 56 4.7 W 9 13 5 7 - - 0.0
28/01:00pm 16.5 14.0 8.1 57 4.5 W 11 17 6 9 - - 0.0
28/12:50pm 16.3 13.6 7.5 56 4.6 W 11 13 6 7 - - 0.0
28/12:40pm 16.0 13.8 7.9 58 4.3 W 9 13 5 7 - - 0.0
28/12:30pm 16.4 14.3 8.3 58 4.3 W 9 13 5 7 - - 0.0
28/12:20pm 15.9 13.8 8.1 60 4.1 W 9 11 5 6 - - 0.0
28/12:10pm 14.5 11.8 7.4 62 3.7 SW 11 15 6 8 - - 0.0
28/12:00pm 14.9 12.7 8.0 63 3.6 WSW 9 13 5 7 - - 0.0
28/11:50am 16.0 13.4 7.6 57 4.4 W 11 15 6 8 - - 0.0
28/11:40am 16.4 14.1 7.4 55 4.7 W 9 11 5 6 - - 0.0
28/11:30am 16.3 13.6 7.4 55 4.7 WNW 11 15 6 8 - - 0.0
28/11:20am 16.9 15.0 7.7 54 4.9 W 7 11 4 6 - - 0.0
28/11:10am 16.2 14.0 7.9 58 4.4 W 9 13 5 7 - - 0.0
28/11:00am 15.6 13.4 8.0 60 4.0 W 9 15 5 8 - - 0.0
28/10:50am 15.3 12.8 8.0 61 3.9 W 11 15 6 8 - - 0.0
28/10:40am 16.1 13.6 8.2 59 4.2 W 11 13 6 7 - - 0.0
28/10:30am 15.7 13.2 8.1 60 4.0 W 11 15 6 8 - - 0.0
28/10:20am 15.6 13.4 8.0 60 4.0 W 9 11 5 6 - - 0.0
28/10:10am 15.7 13.7 8.7 63 3.8 WNW 9 11 5 6 - - 0.0
28/10:00am 15.8 14.6 9.6 66 3.4 WNW 6 9 3 5 - - 0.0
28/09:50am 15.5 14.3 9.7 68 3.2 WNW 6 7 3 4 - - 0.0
28/09:40am 15.0 13.6 9.0 67 3.2 NW 6 9 3 5 - - 0.0
28/09:30am 14.5 13.2 9.1 70 2.9 NNW 6 7 3 4 - - 0.0
28/09:20am 14.1 12.7 8.9 71 2.8 NNW 6 7 3 4 - - 0.0
28/09:10am 13.9 12.5 8.9 72 2.7 NNW 6 7 3 4 - - 0.0
28/09:00am 13.9 12.5 8.7 71 2.8 NNW 6 7 3 4 - - 0.0
28/08:50am 13.8 12.5 9.1 73 2.5 NNW 6 6 3 3 - - 0.0
28/08:40am 13.4 12.3 8.6 73 2.5 NNW 4 6 2 3 - - 0.0
28/08:30am 12.9 12.0 9.1 78 2.0 WNW 4 6 2 3 - - 0.0
28/08:20am 12.6 11.7 9.2 80 1.8 WNW 4 4 2 2 - - 0.0
28/08:10am 13.0 12.1 9.2 78 2.0 NW 4 6 2 3 - - 0.0
28/08:00am 12.9 11.9 8.8 76 2.2 NW 4 4 2 2 - - 0.0
28/07:50am 12.2 11.1 8.4 77 2.0 NW 4 4 2 2 - - 0.0
28/07:40am 11.5 10.7 8.3 81 1.7 W 2 4 1 2 - - 0.0
28/07:30am 10.7 9.9 8.0 83 1.4 SW 2 4 1 2 - - 0.0
28/07:20am 10.1 9.2 7.7 85 1.2 S 2 2 1 1 - - 0.0
28/07:10am 10.0 9.1 7.7 86 1.2 S 2 4 1 2 - - 0.0
28/07:00am 10.0 9.4 7.5 84 1.3 CALM 0 4 0 2 - - 0.0
28/06:50am 9.7 8.7 7.5 86 1.1 S 2 6 1 3 - - 0.0
28/06:40am 9.5 8.5 7.5 87 1.0 S 2 6 1 3 - - 0.0
28/06:30am 9.6 8.6 7.5 87 1.1 S 2 2 1 1 - - 0.0
28/06:20am 9.7 8.7 7.5 86 1.1 S 2 6 1 3 - - 0.0
28/06:10am 9.8 9.3 7.9 88 1.0 CALM 0 2 0 1 - - 0.0
28/06:00am 9.8 8.9 7.9 88 1.0 WSW 2 4 1 2 - - 0.0
28/05:50am 9.9 9.1 8.1 88 0.9 WSW 2 4 1 2 - - 0.0
28/05:40am 9.8 8.7 8.3 90 0.8 SW 4 4 2 2 - - 0.0
28/05:30am 9.7 8.6 8.5 92 0.6 SW 4 4 2 2 - - 0.0
28/05:20am 9.5 8.4 8.6 94 0.5 SW 4 4 2 2 - - 0.0
28/05:10am 9.3 8.6 8.6 95 0.4 SW 2 4 1 2 - - 0.0
28/05:00am 9.2 8.5 8.7 97 0.3 S 2 4 1 2 - - 0.0
28/04:50am 9.0 8.3 8.7 98 0.2 SSE 2 4 1 2 - - 0.0
28/04:40am 9.1 8.5 8.8 98 0.2 SW 2 4 1 2 - - 0.0
28/04:30am 9.0 8.0 8.9 99 0.1 SW 4 6 2 3 - - 0.0
28/04:20am 8.9 7.5 8.9 100 0.0 SW 6 6 3 3 - - 0.0
28/04:10am 8.7 7.7 8.7 100 0.0 SSW 4 6 2 3 - - 0.0
28/04:00am 8.8 7.8 8.8 100 0.0 WSW 4 6 2 3 - - 0.0
28/03:50am 9.0 8.0 9.0 100 0.0 W 4 6 2 3 - - 0.0
28/03:40am 8.9 7.9 8.8 99 0.1 WSW 4 6 2 3 - - 0.0
28/03:30am 9.0 8.0 9.0 100 0.0 W 4 6 2 3 - - 0.0
28/03:20am 9.2 7.8 9.0 99 0.1 W 6 7 3 4 - - 0.0
28/03:10am 9.4 7.9 9.2 99 0.1 W 7 9 4 5 - - 0.0
28/03:00am 9.5 8.2 9.2 98 0.2 W 6 7 3 4 - - 0.0
28/02:50am 9.8 8.6 9.5 98 0.2 W 6 7 3 4 - - 0.0
28/02:40am 9.9 9.1 9.7 99 0.1 W 4 6 2 3 - - 0.0
28/02:30am 9.9 9.1 9.8 99 0.1 W 4 4 2 2 - - 0.0
28/02:20am 9.9 8.8 9.9 100 0.0 W 6 7 3 4 - - 0.0
28/02:10am 10.0 8.9 10.0 100 0.0 WNW 6 7 3 4 - - 0.0
28/02:00am 10.0 9.3 10.0 100 0.0 WNW 4 6 2 3 - - 0.0
28/01:50am 10.1 9.0 10.1 100 0.0 W 6 6 3 3 - - 0.0
28/01:40am 10.0 9.3 10.0 100 0.0 W 4 6 2 3 - - 0.0
28/01:30am 10.0 9.3 10.0 100 0.0 W 4 6 2 3 - - 0.0
28/01:20am 10.0 9.3 10.0 100 0.0 WNW 4 4 2 2 - - 0.0
28/01:10am 10.0 9.3 10.0 100 0.0 WNW 4 6 2 3 - - 0.0
28/01:00am 10.0 9.3 10.0 100 0.0 W 4 4 2 2 - - 0.0
28/12:50am 10.0 9.3 10.0 100 0.0 W 4 6 2 3 - - 0.0
28/12:40am 10.1 9.4 10.1 100 0.0 W 4 4 2 2 - - 0.0
28/12:30am 10.1 9.4 10.1 100 0.0 W 4 6 2 3 - - 0.0
28/12:20am 10.2 9.5 10.2 100 0.0 W 4 4 2 2 - - 0.0
28/12:10am 10.2 - 10.3 - - W 4 4 2 2 - - 0.0
28/12:00am 10.3 9.7 10.3 100 0.0 WSW 4 6 2 3 - - 0.0
 
Date/Time
EST
Temp
°C
App
Temp
°C
Dew
Point
°C
Rel
Hum
%
Delta-T
°C
Wind Press
QNH
hPa
Press
MSL
hPa
Rain since
9am
mm
Dir  Spd
km/h
Gust
km/h
Spd
kts
Gust
kts
27/11:50pm 10.4 9.4 10.4 100 0.0 W 6 7 3 4 - - 0.0
27/11:40pm 10.4 10.2 10.4 100 0.0 WNW 2 4 1 2 - - 0.0
27/11:30pm 10.4 - 10.5 - - WNW 4 6 2 3 - - 0.0
27/11:20pm 10.5 9.9 10.5 100 0.0 W 4 6 2 3 - - 0.0
27/11:10pm 10.5 10.3 10.5 100 0.0 W 2 4 1 2 - - 0.0
27/11:00pm 10.5 10.3 10.5 100 0.0 WNW 2 2 1 1 - - 0.0
27/10:50pm 10.4 - 10.5 - - W 2 4 1 2 - - 0.0
27/10:40pm 10.5 10.3 10.5 100 0.0 W 2 4 1 2 - - 0.0
27/10:30pm 10.5 10.3 10.5 100 0.0 NNW 2 4 1 2 - - 0.0
27/10:20pm 10.5 10.3 10.5 100 0.0 NNW 2 4 1 2 - - 0.0
27/10:10pm 10.5 9.9 10.5 100 0.0 N 4 6 2 3 - - 0.0
27/10:00pm 10.5 10.3 10.5 100 0.0 WNW 2 6 1 3 - - 0.0
27/09:50pm 10.4 - 10.5 - - S 2 4 1 2 - - 0.0
27/09:40pm 10.5 10.3 10.5 100 0.0 NNE 2 4 1 2 - - 0.0
27/09:30pm 10.4 9.8 10.4 100 0.0 SE 4 4 2 2 - - 0.0
27/09:20pm 10.5 9.9 10.5 100 0.0 SE 4 6 2 3 - - 0.0
27/09:10pm 10.5 9.6 10.5 100 0.0 SE 6 6 3 3 - - 0.0
27/09:00pm 10.5 9.6 10.5 100 0.0 SE 6 6 3 3 - - 0.0
27/08:50pm 10.5 9.6 10.5 100 0.0 SE 6 6 3 3 - - 0.0
27/08:40pm 10.6 10.4 10.5 99 0.1 S 2 4 1 2 - - 0.0
27/08:30pm 10.6 10.4 10.6 100 0.0 W 2 4 1 2 - - 0.0
27/08:20pm 10.6 10.4 10.6 100 0.0 W 2 4 1 2 - - 0.0
27/08:10pm 10.6 10.4 10.6 100 0.0 W 2 4 1 2 - - 0.0
27/08:00pm 10.7 10.2 10.6 99 0.1 WNW 4 6 2 3 - - 0.0
27/07:50pm 10.6 10.8 10.5 99 0.1 CALM 0 2 0 1 - - 0.0
27/07:40pm 10.6 10.4 10.4 99 0.1 SSE 2 4 1 2 - - 0.0
27/07:30pm 10.5 10.3 10.3 99 0.1 ESE 2 4 1 2 - - 0.0
27/07:20pm 10.6 10.4 10.4 99 0.1 ESE 2 4 1 2 - - 0.0
27/07:10pm 10.8 11.0 10.6 99 0.1 CALM 0 2 0 1 - - 0.0
27/07:00pm 10.8 11.0 10.6 99 0.1 CALM 0 0 0 0 - - 0.0
27/06:50pm 10.8 10.6 10.6 99 0.1 ESE 2 4 1 2 - - 0.0
27/06:40pm 10.8 10.3 10.6 99 0.1 ESE 4 6 2 3 - - 0.0
27/06:30pm 10.9 10.4 10.6 98 0.2 ESE 4 4 2 2 - - 0.0
27/06:20pm 10.9 10.0 10.5 97 0.2 ESE 6 7 3 4 - - 0.0
27/06:10pm 11.0 10.8 10.5 97 0.3 SSE 2 4 1 2 - - 0.0
27/06:00pm 11.1 11.3 10.5 96 0.3 CALM 0 2 0 1 - - 0.0
27/05:50pm 11.2 10.6 10.5 95 0.4 NNE 4 4 2 2 - - 0.0
27/05:40pm 11.3 10.7 10.5 95 0.4 NNW 4 4 2 2 - - 0.0
27/05:30pm 11.3 11.1 10.4 94 0.5 N 2 4 1 2 - - 0.0
27/05:20pm 11.3 11.4 10.2 93 0.6 CALM 0 2 0 1 - - 0.0
27/05:10pm 11.3 11.0 10.1 92 0.6 ESE 2 4 1 2 - - 0.0
27/05:00pm 11.3 10.6 10.1 92 0.6 SSE 4 4 2 2 - - 0.0
27/04:50pm 11.5 11.3 10.4 93 0.6 E 2 4 1 2 - - 0.0
27/04:40pm 11.6 11.4 10.4 92 0.6 ESE 2 4 1 2 - - 0.0
27/04:30pm 11.8 11.3 10.6 92 0.7 ESE 4 4 2 2 - - 0.0
27/04:20pm 12.0 11.9 10.7 92 0.7 E 2 4 1 2 - - 0.0
27/04:10pm 12.1 12.0 10.7 91 0.8 - 2 4 1 2 - - 0.0
27/04:00pm 12.2 11.7 10.6 90 0.9 ESE 4 6 2 3 - - 0.0
27/03:50pm 12.6 11.7 10.7 88 1.0 ESE 6 7 3 4 - - 0.0
27/03:40pm 13.3 12.8 10.9 85 1.3 E 4 6 2 3 - - 0.0
27/03:30pm 13.6 13.1 10.8 83 1.5 E 4 7 2 4 - - 0.0
27/03:20pm 13.2 12.0 10.4 83 1.5 ESE 7 7 4 4 - - 0.0
27/03:10pm 12.7 11.5 10.3 85 1.3 ESE 7 7 4 4 - - 0.0
27/03:00pm 12.9 12.0 10.6 86 1.3 ESE 6 7 3 4 - - 0.0
27/02:50pm 13.4 12.5 10.5 82 1.6 E 6 7 3 4 - - 0.0
27/02:40pm 13.1 12.5 10.5 84 1.4 NE 4 6 2 3 - - 0.0
27/02:30pm 12.9 11.9 10.3 84 1.4 NNE 6 6 3 3 - - 0.0
27/02:20pm 12.8 11.8 10.2 84 1.4 N 6 6 3 3 - - 0.0
27/02:10pm 13.0 12.0 10.2 83 1.5 NNE 6 7 3 4 - - 0.0
27/02:00pm 13.1 12.1 10.2 82 1.6 N 6 9 3 5 - - 0.0
27/01:50pm 13.2 12.3 10.5 84 1.5 NNE 6 7 3 4 - - 0.0
27/01:40pm 13.2 12.3 10.5 84 1.5 N 6 7 3 4 - - 0.0
27/01:30pm 13.4 12.2 10.3 81 1.7 N 7 9 4 5 - - 0.0
27/01:20pm 13.1 12.1 10.3 83 1.5 N 6 9 3 5 - - 0.0
27/01:10pm 12.6 11.4 10.4 86 1.2 N 7 9 4 5 - - 0.0
27/01:00pm 12.6 11.6 10.2 85 1.3 NNW 6 7 3 4 - - 0.0
27/12:50pm 12.2 11.2 10.3 88 1.0 NNW 6 7 3 4 - - 0.0
27/12:40pm 12.1 10.9 10.2 88 1.0 NNW 7 9 4 5 - - 0.0
27/12:30pm 12.2 11.1 9.9 86 1.2 NNW 6 7 3 4 - - 0.0
27/12:20pm 12.3 11.6 10.2 87 1.1 NE 4 7 2 4 - - 0.0
27/12:10pm 12.0 10.9 10.0 87 1.1 NNE 6 7 3 4 - - 0.0
27/12:00pm 11.9 10.6 10.0 88 1.0 N 7 9 4 5 - - 0.0
27/11:50am 12.0 10.9 10.1 88 1.0 N 6 7 3 4 - - 0.0
27/11:40am 11.9 10.8 10.1 89 1.0 N 6 7 3 4 - - 0.0
27/11:30am 11.8 10.7 10.1 89 0.9 NNE 6 7 3 4 - - 0.0
27/11:20am 11.8 10.7 10.0 89 1.0 N 6 7 3 4 - - 0.0
27/11:10am 11.8 11.1 10.0 89 1.0 N 4 7 2 4 - - 0.0
27/11:00am 11.8 10.8 10.2 90 0.9 N 6 7 3 4 - - 0.0
27/10:50am 12.0 11.4 10.3 89 0.9 NNE 4 6 2 3 - - 0.0
27/10:40am 11.8 11.1 10.0 89 1.0 N 4 6 2 3 - - 0.0
27/10:30am 12.0 11.3 10.1 88 1.0 NE 4 6 2 3 - - 0.0
27/10:20am 11.7 11.0 10.2 90 0.8 N 4 6 2 3 - - 0.0
27/10:10am 11.9 11.2 10.0 88 1.0 NNW 4 6 2 3 - - 0.0
27/10:00am 11.7 10.9 9.6 87 1.1 ESE 4 6 2 3 - - 0.0
27/09:50am 11.3 10.5 9.5 89 1.0 E 4 6 2 3 - - 0.0
27/09:40am 11.0 10.1 9.4 90 0.8 E 4 6 2 3 - - 0.0
27/09:30am 10.7 10.2 9.5 92 0.6 E 2 6 1 3 - - 0.0
27/09:20am 10.5 9.7 9.5 93 0.5 SE 4 6 2 3 - - 0.0
27/09:10am 10.4 9.1 9.2 92 0.6 ESE 6 7 3 4 - - 0.0
27/09:00am 10.5 9.2 9.1 91 0.7 E 6 7 3 4 - - 0.0
27/08:50am 10.6 9.7 9.2 91 0.7 E 4 6 2 3 - - 0.0
27/08:40am 10.3 8.9 8.8 90 0.8 E 6 7 3 4 - - 0.0
27/08:30am 10.2 9.6 8.8 91 0.7 E 2 4 1 2 - - 0.0
27/08:20am 9.8 8.7 8.6 92 0.6 ESE 4 6 2 3 - - 0.0
27/08:10am 9.5 8.9 9.0 97 0.3 S 2 4 1 2 - - 0.0
27/08:00am 9.0 8.0 8.7 98 0.2 SW 4 4 2 2 - - 0.0
27/07:50am 8.9 7.9 8.8 99 0.1 WSW 4 4 2 2 - - 0.0
27/07:40am 8.5 7.4 8.4 99 0.1 W 4 6 2 3 - - 0.0
27/07:30am 8.3 7.2 8.3 100 0.0 SW 4 6 2 3 - - 0.0
27/07:20am 8.0 6.4 8.0 100 0.0 SW 6 7 3 4 - - 0.0
27/07:10am 8.1 6.9 8.1 100 0.0 WSW 4 7 2 4 - - 0.0
27/07:00am 8.3 7.2 8.3 100 0.0 WSW 4 4 2 2 - - 0.0
27/06:50am 8.3 7.5 8.3 100 0.0 S 2 4 1 2 - - 0.0
27/06:40am 8.4 8.0 8.4 100 0.0 CALM 0 0 0 0 - - 0.0
27/06:30am 8.4 7.7 8.4 100 0.0 WSW 2 2 1 1 - - 0.0
27/06:20am 8.4 8.0 8.3 99 0.1 CALM 0 0 0 0 - - 0.0
27/06:10am 8.4 7.6 8.3 99 0.1 NW 2 2 1 1 - - 0.0
27/06:00am 8.3 7.9 8.3 100 0.0 CALM 0 4 0 2 - - 0.0
27/05:50am 8.4 8.0 8.3 99 0.1 CALM 0 2 0 1 - - 0.0
27/05:40am 8.5 8.1 8.4 99 0.1 CALM 0 2 0 1 - - 0.0
27/05:30am 8.4 7.6 8.3 99 0.1 SW 2 2 1 1 - - 0.0
27/05:20am 8.5 7.7 8.3 99 0.1 NW 2 6 1 3 - - 0.0
27/05:10am 8.3 7.5 8.0 98 0.2 WSW 2 4 1 2 - - 0.0
27/05:00am 8.2 7.7 7.7 97 0.3 CALM 0 2 0 1 - - 0.0
27/04:50am 8.2 7.3 7.6 96 0.3 N 2 4 1 2 - - 0.0
27/04:40am 8.4 7.9 7.7 95 0.4 CALM 0 0 0 0 - - 0.0
27/04:30am 8.5 7.6 7.7 95 0.4 S 2 4 1 2 - - 0.0
27/04:20am 8.6 7.7 7.8 95 0.4 SSE 2 4 1 2 - - 0.0
27/04:10am 8.5 7.6 7.8 95 0.4 S 2 4 1 2 - - 0.0
27/04:00am 8.6 7.7 7.7 94 0.5 SSE 2 2 1 1 - - 0.0
27/03:50am 8.7 7.8 7.7 93 0.5 SSE 2 4 1 2 - - 0.0
27/03:40am 8.8 7.8 7.5 91 0.7 S 2 2 1 1 - - 0.0
27/03:30am 8.8 7.5 7.5 91 0.7 SW 4 4 2 2 - - 0.0
27/03:20am 8.7 7.4 7.5 92 0.6 SW 4 4 2 2 - - 0.0
27/03:10am 8.6 7.3 7.6 93 0.5 SW 4 6 2 3 - - 0.0
27/03:00am 8.5 7.2 7.7 95 0.4 SSW 4 6 2 3 - - 0.0
27/02:50am 8.5 6.9 7.8 95 0.4 SW 6 7 3 4 - - 0.0
27/02:40am 8.4 6.8 7.8 96 0.3 WSW 6 7 3 4 - - 0.0
27/02:30am 8.6 7.4 8.0 96 0.3 W 4 6 2 3 - - 0.0
27/02:20am 8.6 8.1 8.0 96 0.3 CALM 0 2 0 1 - - 0.0
27/02:10am 8.6 7.4 8.0 96 0.3 WSW 4 4 2 2 - - 0.0
27/02:00am 8.6 7.8 8.0 96 0.3 W 2 6 1 3 - - 0.0
27/01:50am 8.6 8.0 7.6 93 0.5 CALM 0 2 0 1 - - 0.0
27/01:40am 8.6 8.1 7.7 94 0.5 CALM 0 0 0 0 - - 0.0
27/01:30am 8.5 8.0 7.8 95 0.4 CALM 0 0 0 0 - - 0.0
27/01:20am 8.4 7.9 7.9 97 0.3 CALM 0 4 0 2 - - 0.0
27/01:10am 8.3 7.8 7.8 97 0.3 CALM 0 2 0 1 - - 0.0
27/01:00am 8.2 7.6 7.5 95 0.3 CALM 0 2 0 1 - - 0.0
27/12:50am 8.3 7.7 7.5 95 0.4 CALM 0 2 0 1 - - 0.0
27/12:40am 8.3 7.3 7.4 94 0.4 SSE 2 2 1 1 - - 0.0
27/12:30am 8.3 7.7 7.5 95 0.4 CALM 0 2 0 1 - - 0.0
27/12:20am 8.3 7.4 7.6 95 0.3 SSE 2 2 1 1 - - 0.0
27/12:10am 8.3 7.4 7.7 96 0.3 SSE 2 4 1 2 - - 0.0
27/12:00am 8.3 7.7 7.6 95 0.3 CALM 0 2 0 1 - - 0.0
 
Date/Time
EST
Temp
°C
App
Temp
°C
Dew
Point
°C
Rel
Hum
%
Delta-T
°C
Wind Press
QNH
hPa
Press
MSL
hPa
Rain since
9am
mm
Dir  Spd
km/h
Gust
km/h
Spd
kts
Gust
kts
26/11:50pm 8.4 7.9 7.7 95 0.4 CALM 0 2 0 1 - - 0.0
26/11:40pm 8.5 7.6 7.9 96 0.3 ENE 2 4 1 2 - - 0.0
26/11:30pm 8.4 7.2 8.1 98 0.2 S 4 6 2 3 - - 0.0
26/11:20pm 8.6 8.3 8.6 100 0.0 CALM 0 4 0 2 - - 0.0
26/11:10pm 8.8 8.2 8.8 100 0.0 SW 2 4 1 2 - - 0.0
26/11:00pm 8.9 8.3 8.9 100 0.0 SSW 2 4 1 2 - - 0.0
26/10:50pm 9.0 - 9.1 - - SSW 2 4 1 2 - - 0.0
26/10:40pm 9.2 8.7 9.2 100 0.0 W 2 4 1 2 - - 0.0
26/10:30pm 9.3 8.8 9.3 100 0.0 SSE 2 6 1 3 - - 0.0
26/10:20pm 9.3 8.4 9.3 100 0.0 NNW 4 6 2 3 - - 0.0
26/10:10pm 9.1 8.2 9.1 100 0.0 N 4 4 2 2 - - 0.0
26/10:00pm 9.1 8.2 9.1 100 0.0 WNW 4 6 2 3 - - 0.0
26/09:50pm 9.3 8.8 9.3 100 0.0 NW 2 4 1 2 - - 0.0
26/09:40pm 9.1 8.2 9.1 100 0.0 WNW 4 6 2 3 - - 0.0
26/09:30pm 9.1 8.2 9.1 100 0.0 E 4 6 2 3 - - 0.0
26/09:20pm 9.3 8.0 9.3 100 0.0 ESE 6 9 3 5 - - 0.0
26/09:10pm 9.5 8.1 9.5 100 0.0 ESE 7 11 4 6 - - 0.0
26/09:00pm 9.6 8.2 9.5 99 0.1 E 7 9 4 5 - - 0.0
26/08:50pm 9.6 8.4 9.5 99 0.1 E 6 7 3 4 - - 0.0
26/08:40pm 9.7 8.9 9.5 99 0.1 E 4 6 2 3 - - 0.0
26/08:30pm 9.7 8.9 9.5 99 0.1 E 4 6 2 3 - - 0.0
26/08:20pm 9.7 9.2 9.5 99 0.1 E 2 6 1 3 - - 0.0
26/08:10pm 9.7 8.9 9.5 99 0.1 - 4 7 2 4 - - 0.0
26/08:00pm 9.7 8.9 9.5 99 0.1 ESE 4 6 2 3 - - 0.0
26/07:50pm 9.8 9.3 9.5 98 0.2 E 2 6 1 3 - - 0.0
26/07:40pm 9.9 9.4 9.5 97 0.2 E 2 6 1 3 - - 0.0
26/07:30pm 9.8 8.9 9.3 97 0.3 ESE 4 7 2 4 - - 0.0
26/07:20pm 10.0 9.2 9.6 97 0.2 ENE 4 6 2 3 - - 0.0
26/07:10pm 10.0 8.7 9.3 95 0.4 E 6 9 3 5 - - 0.0
26/07:00pm 9.9 9.0 9.4 97 0.3 ESE 4 6 2 3 - - 0.0
26/06:50pm 10.0 9.2 9.6 97 0.2 SSE 4 6 2 3 - - 0.0
26/06:40pm 10.0 9.2 9.7 98 0.2 ESE 4 6 2 3 - - 0.0
26/06:30pm 10.1 9.3 9.8 98 0.2 E 4 6 2 3 - - 0.0
26/06:20pm 10.3 9.5 9.8 97 0.3 ESE 4 6 2 3 - - 0.0
26/06:10pm 10.4 9.2 9.7 95 0.4 ESE 6 9 3 5 - - 0.0
26/06:00pm 10.5 8.7 9.3 92 0.6 ESE 9 13 5 7 - - 0.0
26/05:50pm 10.5 9.3 9.5 93 0.5 ESE 6 9 3 5 - - 0.0
26/05:40pm 10.5 10.1 9.8 95 0.4 ESE 2 4 1 2 - - 0.0
26/05:30pm 10.6 10.6 9.9 95 0.4 CALM 0 2 0 1 - - 0.0
26/05:20pm 10.6 10.2 9.8 95 0.4 E 2 6 1 3 - - 0.0
26/05:10pm 10.6 9.8 9.8 95 0.4 E 4 9 2 5 - - 0.0
26/05:00pm 10.8 10.1 10.0 95 0.4 ESE 4 4 2 2 - - 0.0
26/04:50pm 11.2 10.1 10.1 93 0.6 ESE 6 7 3 4 - - 0.0
26/04:40pm 11.5 10.4 10.1 91 0.8 ESE 6 7 3 4 - - 0.0
26/04:30pm 11.7 10.5 9.4 86 1.2 SE 6 6 3 3 - - 0.0
26/04:20pm 11.3 10.5 9.6 89 0.9 ESE 4 7 2 4 - - 0.0
26/04:10pm 11.4 10.5 9.3 87 1.1 SE 4 6 2 3 - - 0.0
26/04:00pm 11.5 10.2 9.3 86 1.2 SE 6 7 3 4 - - 0.0
26/03:50pm 11.9 10.8 9.8 87 1.1 ESE 6 7 3 4 - - 0.0
26/03:40pm 12.6 11.5 9.8 83 1.5 E 6 7 3 4 - - 0.0
26/03:30pm 13.0 11.8 9.5 79 1.9 ESE 6 7 3 4 - - 0.0
26/03:20pm 12.4 10.9 9.2 81 1.7 SE 7 9 4 5 - - 0.0
26/03:10pm 12.7 11.2 9.3 80 1.8 SE 7 13 4 7 - - 0.0
26/03:00pm 13.5 12.1 9.4 76 2.2 SSE 7 11 4 6 - - 0.0
26/02:50pm 15.1 13.9 9.6 69 3.0 ESE 6 9 3 5 - - 0.0
26/02:40pm 14.9 13.4 9.0 68 3.2 SE 7 11 4 6 - - 0.0
26/02:30pm 14.7 13.2 9.2 69 3.0 SE 7 13 4 7 - - 0.0
26/02:20pm 14.4 12.5 9.2 71 2.8 SSE 9 11 5 6 - - 0.0
26/02:10pm 13.8 12.4 8.9 72 2.6 SSE 6 9 3 5 - - 0.0
26/02:00pm 13.5 12.0 9.1 75 2.3 ESE 7 9 4 5 - - 0.0
26/01:50pm 13.1 11.9 9.7 80 1.8 SE 6 13 3 7 - - 0.0
26/01:40pm 12.8 11.5 9.3 79 1.9 SE 6 9 3 5 - - 0.0
26/01:30pm 12.9 11.5 9.4 79 1.9 ESE 7 11 4 6 - - 0.0
26/01:20pm 13.3 12.0 10.0 80 1.8 SE 7 11 4 6 - - 0.0
26/01:10pm 13.4 12.2 9.5 77 2.1 SE 6 11 3 6 - - 0.0
26/01:00pm 13.6 12.4 9.7 77 2.1 ESE 6 7 3 4 - - 0.0
26/12:50pm 13.4 11.6 9.6 78 2.0 SE 9 15 5 8 - - 0.0
26/12:40pm 13.2 11.1 9.9 80 1.8 SE 11 17 6 9 - - 0.0
26/12:30pm 13.3 11.0 9.1 76 2.2 ESE 11 19 6 10 - - 0.0
26/12:20pm 13.0 11.6 9.7 80 1.8 SE 7 11 4 6 - - 0.0
26/12:10pm 13.1 12.0 9.8 80 1.8 ESE 6 9 3 5 - - 0.0
26/12:00pm 13.0 12.3 10.0 82 1.6 SE 4 6 2 3 - - 0.0
26/11:50am 12.7 11.7 10.2 85 1.4 ESE 6 9 3 5 - - 0.0
26/11:40am 12.3 10.6 9.9 85 1.3 ESE 9 13 5 7 - - 0.0
26/11:30am 12.1 10.1 10.0 87 1.1 ESE 11 17 6 9 - - 0.0
26/11:20am 12.6 11.3 10.0 84 1.4 ESE 7 11 4 6 - - 0.0
26/11:10am 12.1 11.0 9.8 86 1.2 SE 6 9 3 5 - - 0.0
26/11:00am 11.8 9.7 9.9 88 1.0 ESE 11 19 6 10 - - 0.0
26/10:50am 12.0 10.8 10.4 90 0.9 ESE 7 11 4 6 - - 0.0
26/10:40am 11.9 11.0 10.5 91 0.8 SE 6 9 3 5 - - 0.0
26/10:30am 11.8 10.7 10.6 92 0.7 ESE 7 9 4 5 - - 0.0
26/10:20am 12.1 11.0 10.1 87 1.1 ESE 6 9 3 5 - - 0.0
26/10:10am 12.4 10.7 9.9 85 1.3 SE 9 11 5 6 - - 0.0
26/10:00am 12.4 11.0 9.4 82 1.6 ESE 7 11 4 6 - - 0.0
26/09:50am 12.3 10.2 9.7 84 1.4 ESE 11 15 6 8 - - 0.0
26/09:40am 12.3 10.2 9.6 83 1.4 ESE 11 15 6 8 - - 0.0
26/09:30am 12.1 10.7 9.6 85 1.3 E 7 9 4 5 - - 0.0
26/09:20am 11.5 10.0 9.2 86 1.2 SE 7 15 4 8 - - 0.0
26/09:10am 11.6 10.0 8.9 83 1.4 ESE 7 13 4 7 - - 0.0
26/09:00am 11.3 10.6 10.0 92 0.7 NE 4 6 2 3 - - 0.0
26/08:50am 11.4 10.6 9.5 88 1.0 NNE 4 6 2 3 - - 0.0
26/08:40am 11.3 10.5 9.7 90 0.9 N 4 7 2 4 - - 0.0
26/08:30am 11.2 10.3 9.2 87 1.1 ESE 4 7 2 4 - - 0.0
26/08:20am 10.7 9.2 8.3 85 1.2 ESE 6 7 3 4 - - 0.0
26/08:10am 10.4 9.0 8.8 90 0.8 ESE 6 9 3 5 - - 0.0
26/08:00am 10.1 8.6 8.5 90 0.8 E 6 11 3 6 - - 0.0
26/07:50am 9.7 8.0 8.3 91 0.7 ESE 7 13 4 7 - - 0.0
26/07:40am 9.3 7.8 8.4 94 0.5 SE 6 9 3 5 - - 0.0
26/07:30am 9.0 7.3 8.4 96 0.3 - 7 9 4 5 - - 0.0
26/07:20am 9.0 7.0 8.6 97 0.2 E 9 17 5 9 - - 0.0
26/07:10am 9.1 7.7 9.0 99 0.1 E 6 13 3 7 - - 0.0
26/07:00am 9.1 7.7 8.9 99 0.1 E 6 9 3 5 - - 0.0
26/06:50am 9.1 8.4 8.7 97 0.2 E 2 4 1 2 - - 0.0
26/06:40am 9.2 8.5 8.5 95 0.4 SE 2 6 1 3 - - 0.0
26/06:30am 9.2 8.1 8.4 95 0.4 ESE 4 7 2 4 - - 0.0
26/06:20am 9.2 7.7 8.3 94 0.5 ESE 6 13 3 7 - - 0.0
26/06:10am 9.1 7.7 8.7 97 0.2 SE 6 11 3 6 - - 0.0
26/06:00am 9.2 7.8 8.7 97 0.3 ESE 6 9 3 5 - - 0.0
26/05:50am 9.3 7.8 8.5 95 0.4 ESE 6 9 3 5 - - 0.0
26/05:40am 9.1 7.9 8.2 94 0.5 E 4 7 2 4 - - 0.0
26/05:30am 9.1 8.4 8.4 95 0.4 NE 2 6 1 3 - - 0.0
26/05:20am 9.3 7.8 8.5 95 0.4 ESE 6 9 3 5 - - 0.0
26/05:10am 9.3 7.3 8.5 95 0.4 ESE 9 13 5 7 - - 0.0
26/05:00am 9.1 8.1 8.7 97 0.2 SE 4 7 2 4 - - 0.0
26/04:50am 9.1 8.0 8.6 97 0.3 SSE 4 7 2 4 - - 0.0
26/04:40am 9.0 7.5 8.6 97 0.2 SE 6 7 3 4 - - 0.0
26/04:30am 9.0 7.5 8.5 97 0.3 SE 6 7 3 4 - - 0.0
26/04:20am 9.0 7.0 8.7 98 0.2 SE 9 15 5 8 - - 0.0
26/04:10am 9.0 7.6 9.0 100 0.0 S 6 13 3 7 - - 0.0
26/04:00am 9.2 8.6 9.1 99 0.1 ENE 2 4 1 2 - - 0.0
26/03:50am 9.2 8.3 9.1 99 0.1 SW 4 9 2 5 - - 0.0
26/03:40am 9.3 8.4 9.1 99 0.1 ENE 4 7 2 4 - - 0.0
26/03:30am 9.4 7.9 9.2 99 0.1 E 7 13 4 7 - - 0.0
26/03:20am 9.4 7.9 9.2 99 0.1 E 7 13 4 7 - - 0.0
26/03:10am 9.5 8.2 9.2 98 0.2 ESE 6 9 3 5 - - 0.0
26/03:00am 9.6 8.7 9.2 97 0.2 E 4 7 2 4 - - 0.0
26/02:50am 9.8 8.5 9.1 95 0.4 ESE 6 7 3 4 - - 0.0
26/02:40am 9.8 8.5 9.1 95 0.4 SE 6 11 3 6 - - 0.0
26/02:30am 9.8 8.8 9.0 95 0.4 SE 4 7 2 4 - - 0.0
26/02:20am 9.8 8.8 8.9 94 0.5 E 4 7 2 4 - - 0.0
26/02:10am 9.8 8.4 8.9 94 0.5 SE 6 7 3 4 - - 0.0
26/02:00am 9.7 8.7 8.8 94 0.5 SE 4 9 2 5 - - 0.0
26/01:50am 9.6 9.0 8.8 95 0.4 ESE 2 4 1 2 - - 0.0
26/01:40am 9.6 8.2 8.7 94 0.5 SE 6 7 3 4 - - 0.0
26/01:30am 9.4 8.7 8.7 95 0.4 SSE 2 6 1 3 - - 0.0
26/01:20am 9.4 8.4 8.7 95 0.4 ENE 4 6 2 3 - - 0.0
26/01:10am 9.6 8.2 8.8 95 0.4 ESE 6 7 3 4 - - 0.0
26/01:00am 9.6 8.2 8.9 95 0.4 ESE 6 9 3 5 - - 0.0
26/12:50am 9.6 8.0 8.9 95 0.4 SE 7 9 4 5 - - 0.0
26/12:40am 9.6 8.2 8.7 94 0.5 ESE 6 9 3 5 - - 0.0
26/12:30am 9.6 8.6 8.7 94 0.5 SE 4 7 2 4 - - 0.0
26/12:20am 9.5 8.0 8.6 94 0.5 SE 6 6 3 3 - - 0.0
26/12:10am 9.3 8.6 8.5 95 0.4 S 2 6 1 3 - - 0.0
26/12:00am 9.3 8.2 8.5 95 0.4 SE 4 7 2 4 - - 0.0
 
Date/Time
EST
Temp
°C
App
Temp
°C
Dew
Point
°C
Rel
Hum
%
Delta-T
°C
Wind Press
QNH
hPa
Press
MSL
hPa
Rain since
9am
mm
Dir  Spd
km/h
Gust
km/h
Spd
kts
Gust
kts
25/11:50pm 9.3 7.3 8.5 95 0.4 SE 9 15 5 8 - - 0.0
25/11:40pm 9.1 7.6 8.5 96 0.3 SE 6 9 3 5 - - 0.0
25/11:30pm 9.1 8.0 8.5 96 0.3 E 4 7 2 4 - - 0.0
25/11:20pm 9.2 7.5 8.4 95 0.4 ESE 7 9 4 5 - - 0.0
25/11:10pm 9.3 7.7 8.2 93 0.6 SE 6 9 3 5 - - 0.0
25/11:00pm 9.2 8.0 8.1 93 0.6 SSE 4 6 2 3 - - 0.0
25/10:50pm 9.2 8.0 7.9 92 0.7 SE 4 11 2 6 - - 0.0
25/10:40pm 9.2 7.6 8.0 92 0.6 S 6 7 3 4 - - 0.0
25/10:30pm 9.1 7.9 8.0 93 0.6 SSE 4 6 2 3 - - 0.0
25/10:20pm 9.2 7.6 7.9 92 0.7 S 6 9 3 5 - - 0.0
25/10:10pm 9.2 7.6 8.0 92 0.6 SSE 6 11 3 6 - - 0.0
25/10:00pm 9.2 7.6 8.2 93 0.5 SSE 6 9 3 5 - - 0.0
25/09:50pm 9.3 7.7 8.2 93 0.6 S 6 9 3 5 - - 0.0
25/09:40pm 9.4 7.7 8.2 92 0.6 SE 7 13 4 7 - - 0.0
25/09:30pm 9.2 8.0 8.2 93 0.5 SSE 4 7 2 4 - - 0.0
25/09:20pm 9.2 8.1 8.3 94 0.5 S 4 6 2 3 - - 0.0
25/09:10pm 9.1 8.0 8.4 95 0.4 S 4 6 2 3 - - 0.0
25/09:00pm 9.1 8.0 8.4 95 0.4 SSW 4 6 2 3 - - 0.0
25/08:50pm 9.1 8.0 8.3 95 0.4 SSE 4 7 2 4 - - 0.0
25/08:40pm 9.1 7.9 8.2 94 0.5 S 4 6 2 3 - - 0.0
25/08:30pm 9.0 7.8 8.1 94 0.5 SSW 4 6 2 3 - - 0.0
25/08:20pm 9.0 7.4 8.1 94 0.5 SSW 6 7 3 4 - - 0.0
25/08:10pm 9.0 7.4 8.1 94 0.5 SSW 6 9 3 5 - - 0.0
25/08:00pm 8.9 7.3 8.2 95 0.4 SW 6 7 3 4 - - 0.0
25/07:50pm 8.8 7.3 8.4 97 0.2 SSW 6 7 3 4 - - 0.0
25/07:40pm 8.7 7.2 8.6 99 0.1 SW 6 7 3 4 - - 0.0
25/07:30pm 8.6 7.1 8.6 100 0.0 SW 6 7 3 4 - - 0.0
25/07:20pm 8.5 7.4 8.5 100 0.0 WSW 4 6 2 3 - - 0.0
25/07:10pm 8.5 7.4 8.5 100 0.0 WSW 4 6 2 3 - - 0.0
25/07:00pm 8.5 7.4 8.5 100 0.0 WSW 4 6 2 3 - - 0.0
25/06:50pm 8.4 7.3 8.4 100 0.0 WSW 4 6 2 3 - - 0.0
25/06:40pm 8.2 7.4 8.2 100 0.0 W 2 4 1 2 - - 0.0
25/06:30pm 8.1 6.9 8.1 100 0.0 W 4 6 2 3 - - 0.0
25/06:20pm 8.1 6.5 8.1 100 0.0 WNW 6 7 3 4 - - 0.0
25/06:10pm 8.3 6.8 8.3 100 0.0 WNW 6 7 3 4 - - 0.0
25/06:00pm 8.5 7.0 8.5 100 0.0 WSW 6 7 3 4 - - 0.0
25/05:50pm 8.5 7.0 8.5 100 0.0 WSW 6 7 3 4 - - 0.0
25/05:40pm 8.5 7.0 8.5 100 0.0 SW 6 6 3 3 - - 0.0
25/05:30pm 8.5 7.0 8.5 100 0.0 W 6 7 3 4 - - 0.0
25/05:20pm 8.5 6.8 8.5 100 0.0 WSW 7 7 4 4 - - 0.0
25/05:10pm 8.5 7.0 8.5 100 0.0 WSW 6 7 3 4 - - 0.0
25/05:00pm 8.4 7.3 8.4 100 0.0 W 4 6 2 3 - - 0.0
25/04:50pm 8.4 6.9 8.4 100 0.0 W 6 6 3 3 - - 0.0
25/04:40pm 8.5 7.0 8.5 100 0.0 WNW 6 6 3 3 - - 0.0
25/04:30pm 8.8 7.8 8.7 99 0.1 W 4 6 2 3 - - 0.0
25/04:20pm 9.1 8.5 9.1 100 0.0 W 2 6 1 3 - - 0.0
25/04:10pm 9.1 8.2 9.1 100 0.0 WSW 4 6 2 3 - - 0.0
25/04:00pm 9.0 8.0 8.9 99 0.1 W 4 7 2 4 - - 0.0
25/03:50pm 9.0 7.6 8.8 99 0.1 WNW 6 7 3 4 - - 0.0
25/03:40pm 9.2 7.8 8.9 98 0.2 WNW 6 6 3 3 - - 0.0

Other formats

Comma delimited format used in spreadsheet applications
http://www.bom.gov.au/fwo/IDN60801/IDN60801.99118.axf

JavaScript Object Notation format (JSON) in row-major order
http://www.bom.gov.au/fwo/IDN60801/IDN60801.99118.json

Data quality

Most of these data are generated automatically and are frequently updated. Quality checks on data are not normally performed. It is possible for incorrect values to appear. Refer to information at About Latest Weather Observations and please check the disclaimer before using these data.